Etter, Minnesota
Current Conditions -  °F | °C
As of 8:13 AM on Thursday 23 Oct 2014 (Local Time) from KSYN Reporting Station
Overcast Overcast  
Wind Chill: 51°   Ceiling: 1200
Heat Index: 51°   Visibility: 10mi
Dew Point: 49°   Wind: 6mph
Humidity: 90%   Direction: 190°S
Pressure: 29.99"   Gusts: NA
Location:  44.6055°N, 92.7163°W
Report Text: KSYN 231313Z AUTO 19005KT 10SM SCT008 OVC012 11/09 A2999 RMK AO2 T01070092
Loading
Personal Weather Stations






























Interactive Weather Map
Tropical Storm Tracking
New forecast layout! Learn more

10-Day Weather Forecast

Advertisements
Track Severe Weather on mobile